createdAt,value
2018-03-24T00:00:34.619Z,24.80
2018-03-24T00:03:02.441Z,23.12
2018-03-24T00:05:29.967Z,22.25
2018-03-24T00:07:57.596Z,31.62
2018-03-24T00:10:25.138Z,32.55
2018-03-24T00:12:52.653Z,34.05
2018-03-24T00:15:20.401Z,29.45
2018-03-24T00:17:47.913Z,28.80
2018-03-24T00:20:15.449Z,29.95
2018-03-24T00:22:42.989Z,29.60
2018-03-24T00:25:10.522Z,27.73
2018-03-24T00:27:38.094Z,28.65
2018-03-24T00:30:05.628Z,25.12
2018-03-24T00:32:33.136Z,24.75
2018-03-24T00:35:00.673Z,20.95
2018-03-24T00:37:28.185Z,21.50
2018-03-24T00:39:55.901Z,21.87
2018-03-24T00:42:23.409Z,20.92
2018-03-24T00:44:50.921Z,25.90
2018-03-24T00:47:18.526Z,25.17
2018-03-24T00:49:46.046Z,25.60
2018-03-24T00:52:13.590Z,27.42
2018-03-24T00:54:41.127Z,28.45
2018-03-24T00:57:08.661Z,26.15
2018-03-24T00:59:36.205Z,25.37
2018-03-24T01:02:03.742Z,25.45
2018-03-24T01:04:31.698Z,25.55
2018-03-24T01:06:59.209Z,23.55
2018-03-24T01:09:26.721Z,26.12
2018-03-24T01:11:54.270Z,25.55
2018-03-24T01:14:21.801Z,24.00
2018-03-24T01:16:49.367Z,23.73
2018-03-24T01:19:16.881Z,23.73
2018-03-24T01:21:44.398Z,25.80
2018-03-24T01:24:11.929Z,26.48
2018-03-24T01:26:39.452Z,25.37
2018-03-24T01:29:07.300Z,23.87
2018-03-24T01:31:34.814Z,31.77
2018-03-24T01:34:02.334Z,31.90
2018-03-24T01:36:29.883Z,33.22
2018-03-24T01:38:57.862Z,35.53
2018-03-24T01:41:25.601Z,33.25
2018-03-24T01:43:53.131Z,32.90
2018-03-24T01:46:20.654Z,31.83
2018-03-24T01:48:48.194Z,35.15
2018-03-24T01:51:15.725Z,32.35
2018-03-24T01:53:53.100Z,34.45
2018-03-24T01:56:21.632Z,32.85
2018-03-24T01:58:49.156Z,36.97
2018-03-24T02:01:16.714Z,33.17
2018-03-24T02:03:44.230Z,33.40
2018-03-24T02:06:11.792Z,32.67
2018-03-24T02:08:39.313Z,31.75
2018-03-24T02:11:06.835Z,31.52
2018-03-24T02:13:34.374Z,28.33
2018-03-24T02:16:01.891Z,27.98
2018-03-24T02:18:29.640Z,28.52
2018-03-24T02:20:57.549Z,27.58
2018-03-24T02:23:25.060Z,27.30
2018-03-24T02:25:52.611Z,27.35
2018-03-24T02:28:20.131Z,28.67
2018-03-24T02:30:47.850Z,26.75
2018-03-24T02:33:15.367Z,24.85
2018-03-24T02:35:42.890Z,25.15
2018-03-24T02:38:10.430Z,27.62
2018-03-24T02:40:37.972Z,25.67
2018-03-24T02:43:05.528Z,27.65
2018-03-24T02:45:33.058Z,25.25
2018-03-24T02:48:00.573Z,28.08
2018-03-24T02:50:28.123Z,27.13
2018-03-24T02:52:56.621Z,26.67
2018-03-24T02:55:24.569Z,27.17
2018-03-24T02:57:52.091Z,27.42
2018-03-24T03:00:19.606Z,25.42
2018-03-24T03:02:47.150Z,27.67
2018-03-24T03:05:14.669Z,28.08
2018-03-24T03:07:42.470Z,25.73
2018-03-24T03:10:09.986Z,26.85
2018-03-24T03:12:37.506Z,28.90
2018-03-24T03:15:05.051Z,24.92
2018-03-24T03:17:33.545Z,24.25
2018-03-24T03:20:01.097Z,26.20
2018-03-24T03:22:28.611Z,27.13
2018-03-24T03:24:56.129Z,27.98
2018-03-24T03:27:23.717Z,29.80
2018-03-24T03:29:51.229Z,28.12
2018-03-24T03:32:19.090Z,31.00
2018-03-24T03:34:46.608Z,28.77
2018-03-24T03:37:14.133Z,26.52
2018-03-24T03:39:41.742Z,29.60
2018-03-24T03:42:09.235Z,29.33
2018-03-24T03:44:36.773Z,27.25
2018-03-24T03:47:04.290Z,27.37
2018-03-24T03:49:31.801Z,27.27
2018-03-24T03:51:59.375Z,29.42
2018-03-24T03:54:26.889Z,26.67
2018-03-24T03:56:54.455Z,26.85
2018-03-24T03:59:21.969Z,28.00
2018-03-24T04:01:49.917Z,30.40
2018-03-24T04:04:17.508Z,31.80
2018-03-24T04:06:44.999Z,28.45
2018-03-24T04:09:12.674Z,29.30
2018-03-24T04:11:40.669Z,28.80
2018-03-24T04:14:08.201Z,26.45
2018-03-24T04:16:35.742Z,27.30
2018-03-24T04:19:03.267Z,31.45
2018-03-24T04:21:30.993Z,30.15
2018-03-24T04:23:58.518Z,29.73
2018-03-24T04:26:26.051Z,30.92
2018-03-24T04:28:53.614Z,32.35
2018-03-24T04:31:21.151Z,29.48
2018-03-24T04:33:48.895Z,31.87
2018-03-24T04:36:16.418Z,31.62
2018-03-24T04:38:43.933Z,27.58
2018-03-24T04:41:11.481Z,29.55
2018-03-24T04:43:39.000Z,25.95
2018-03-24T04:46:06.678Z,24.87
2018-03-24T04:48:35.104Z,26.48
2018-03-24T04:51:03.562Z,23.75
2018-03-24T04:53:31.121Z,26.10
2018-03-24T04:55:58.633Z,26.60
2018-03-24T04:58:26.183Z,25.67
2018-03-24T05:00:53.702Z,24.48
2018-03-24T05:03:21.213Z,23.60
2018-03-24T05:05:48.776Z,24.67
2018-03-24T05:08:16.594Z,24.75
2018-03-24T05:10:44.713Z,25.75
2018-03-24T05:13:12.241Z,24.83
2018-03-24T05:15:39.763Z,26.73
2018-03-24T05:18:07.311Z,23.27
2018-03-24T05:20:35.816Z,21.17
2018-03-24T05:23:03.546Z,21.40
2018-03-24T05:25:31.053Z,22.35
2018-03-24T05:27:58.738Z,21.50
2018-03-24T05:30:26.272Z,23.65
2018-03-24T05:32:53.795Z,26.65
2018-03-24T05:35:21.357Z,24.73
2018-03-24T05:37:48.868Z,21.77
2018-03-24T05:40:16.422Z,21.52
2018-03-24T05:42:43.970Z,21.95
2018-03-24T05:45:11.486Z,21.20
2018-03-24T05:47:39.133Z,21.48
2018-03-24T05:50:06.653Z,23.25
2018-03-24T05:52:34.183Z,22.95
2018-03-24T05:55:01.722Z,22.27
2018-03-24T05:57:30.246Z,21.55
2018-03-24T05:59:57.798Z,22.15
2018-03-24T06:02:25.314Z,22.17
2018-03-24T06:04:52.837Z,20.58
2018-03-24T06:07:20.375Z,22.98
2018-03-24T06:09:47.895Z,21.23
2018-03-24T06:12:15.654Z,20.25
2018-03-24T06:14:43.169Z,20.37
2018-03-24T06:17:11.212Z,20.70
2018-03-24T06:19:38.761Z,21.00
2018-03-24T06:22:07.251Z,19.20
2018-03-24T06:24:34.997Z,22.55
2018-03-24T06:27:03.496Z,22.92
2018-03-24T06:29:31.915Z,23.75
2018-03-24T06:32:02.812Z,21.23
2018-03-24T06:34:30.331Z,19.52
2018-03-24T06:37:03.849Z,17.75
2018-03-24T06:39:31.376Z,17.62
2018-03-24T06:41:58.898Z,16.17
2018-03-24T06:44:26.457Z,16.45
2018-03-24T06:46:54.018Z,16.27
2018-03-24T06:49:21.768Z,15.93
2018-03-24T06:51:49.741Z,17.00
2018-03-24T06:54:17.603Z,16.98
2018-03-24T06:56:45.194Z,16.52
2018-03-24T06:59:12.709Z,15.55
2018-03-24T07:01:40.466Z,17.75
2018-03-24T07:04:07.988Z,17.27
2018-03-24T07:06:36.936Z,16.27
2018-03-24T07:09:05.437Z,18.35
2018-03-24T07:11:32.958Z,18.65
2018-03-24T07:14:00.844Z,16.48
2018-03-24T07:16:28.365Z,14.50
2018-03-24T07:18:55.874Z,15.02
2018-03-24T07:21:23.409Z,14.20
2018-03-24T07:23:51.489Z,15.05
2018-03-24T07:26:19.361Z,14.45
2018-03-24T07:28:46.916Z,15.75
2018-03-24T07:31:14.576Z,16.23
2018-03-24T07:33:42.117Z,16.35
2018-03-24T07:36:11.054Z,15.63
2018-03-24T07:38:39.143Z,16.08
2018-03-24T07:41:06.629Z,17.58
2018-03-24T07:43:34.391Z,17.55
2018-03-24T07:46:02.258Z,18.55
2018-03-24T07:48:30.070Z,17.90
2018-03-24T07:50:58.294Z,19.30
2018-03-24T07:53:26.198Z,18.87
2018-03-24T07:55:53.958Z,19.00
2018-03-24T07:58:22.302Z,18.67
2018-03-24T08:00:49.994Z,20.80
2018-03-24T08:03:17.745Z,24.30
2018-03-24T08:05:45.632Z,22.58
2018-03-24T08:08:13.507Z,23.67
2018-03-24T08:10:41.365Z,26.93
2018-03-24T08:13:08.934Z,26.03
2018-03-24T08:15:36.773Z,29.70
2018-03-24T08:18:04.290Z,28.93
2018-03-24T08:20:31.825Z,28.73
2018-03-24T08:22:59.506Z,29.37
2018-03-24T08:25:27.116Z,29.20
2018-03-24T08:27:54.881Z,28.20
2018-03-24T08:30:22.786Z,29.20
2018-03-24T08:32:50.523Z,29.13
2018-03-24T08:35:18.388Z,29.17
2018-03-24T08:37:45.953Z,30.50
2018-03-24T08:40:14.020Z,30.27
2018-03-24T08:42:41.754Z,27.97
2018-03-24T08:45:09.356Z,27.73
2018-03-24T08:47:37.581Z,28.93
2018-03-24T08:50:05.242Z,31.77
2018-03-24T08:52:33.019Z,29.70
2018-03-24T08:55:00.710Z,28.37
2018-03-24T08:57:29.253Z,29.37
2018-03-24T08:59:57.034Z,29.13
2018-03-24T09:02:24.561Z,28.40
2018-03-24T09:04:52.249Z,28.47
2018-03-24T09:07:19.786Z,25.83
2018-03-24T09:09:47.599Z,26.60
2018-03-24T09:12:15.687Z,23.10
2018-03-24T09:14:43.639Z,21.10
2018-03-24T09:17:11.411Z,19.97
2018-03-24T09:19:39.560Z,19.57
2018-03-24T09:22:07.347Z,20.13
2018-03-24T09:24:34.978Z,19.73
2018-03-24T09:27:02.837Z,18.10
2018-03-24T09:29:31.002Z,17.50
2018-03-24T09:31:58.696Z,19.13
2018-03-24T09:34:26.923Z,16.33
2018-03-24T09:36:54.805Z,17.00
2018-03-24T09:39:22.460Z,17.30
2018-03-24T09:41:50.639Z,16.67
2018-03-24T09:44:18.548Z,14.23
2018-03-24T09:46:48.157Z,13.73
2018-03-24T09:49:16.091Z,12.33
2018-03-24T09:51:43.957Z,14.37
2018-03-24T09:54:11.859Z,14.07
2018-03-24T09:56:40.093Z,16.07
2018-03-24T09:59:08.000Z,14.57
2018-03-24T10:01:35.866Z,12.77
2018-03-24T10:04:03.634Z,14.30
2018-03-24T10:06:31.935Z,13.87
2018-03-24T10:08:59.773Z,11.70
2018-03-24T10:11:27.538Z,11.47
2018-03-24T10:13:55.362Z,11.40
2018-03-24T10:16:23.162Z,12.70
2018-03-24T10:18:51.137Z,10.77
2018-03-24T10:24:29.366Z,10.53
2018-03-24T10:26:58.060Z,11.00
2018-03-24T10:29:27.046Z,12.13
2018-03-24T10:31:55.218Z,12.80
2018-03-24T10:34:23.086Z,11.97
2018-03-24T10:36:51.064Z,12.47
2018-03-24T10:39:19.536Z,12.03
2018-03-24T10:41:47.268Z,12.47
2018-03-24T10:44:14.866Z,11.50
2018-03-24T10:46:42.518Z,10.17
2018-03-24T10:49:10.794Z,10.67
2018-03-24T10:51:38.663Z,11.30
2018-03-24T10:54:06.506Z,11.60
2018-03-24T10:56:34.162Z,12.93
2018-03-24T10:59:01.690Z,11.43
2018-03-24T11:01:29.616Z,12.53
2018-03-24T11:03:57.278Z,11.73
2018-03-24T11:06:25.022Z,12.67
2018-03-24T11:08:52.893Z,10.57
2018-03-24T11:11:20.465Z,11.50
2018-03-24T11:13:48.249Z,10.40
2018-03-24T11:16:15.941Z,10.87
2018-03-24T11:18:43.760Z,13.53
2018-03-24T11:21:11.395Z,11.60
2018-03-24T11:23:38.953Z,12.73
2018-03-24T11:26:06.848Z,12.90
2018-03-24T11:28:34.612Z,12.10
2018-03-24T11:31:02.478Z,13.87
2018-03-24T11:33:30.447Z,14.20
2018-03-24T11:35:58.373Z,17.70
2018-03-24T11:38:26.384Z,13.20
2018-03-24T11:40:54.133Z,13.67
2018-03-24T11:43:22.016Z,12.30
2018-03-24T11:45:49.885Z,12.17
2018-03-24T11:48:17.741Z,13.47
2018-03-24T11:50:45.711Z,13.30
2018-03-24T11:53:13.476Z,11.53
2018-03-24T11:55:41.130Z,10.90
2018-03-24T11:58:08.805Z,11.73
2018-03-24T12:00:36.677Z,12.10
2018-03-24T12:03:05.217Z,12.13
2018-03-24T12:05:33.224Z,10.97
2018-03-24T12:08:00.787Z,10.10
2018-03-24T12:10:28.445Z,12.13
2018-03-24T12:12:56.082Z,12.07
2018-03-24T12:15:24.079Z,11.77
2018-03-24T12:17:51.950Z,11.40
2018-03-24T12:20:20.163Z,11.83
2018-03-24T12:22:47.964Z,11.83
2018-03-24T12:25:15.856Z,11.67
2018-03-24T12:27:43.615Z,12.23
2018-03-24T12:30:11.380Z,11.80
2018-03-24T12:32:39.243Z,12.50
2018-03-24T12:35:06.903Z,12.13
2018-03-24T12:37:34.566Z,11.63
2018-03-24T12:40:02.639Z,12.00
2018-03-24T12:42:30.217Z,12.87
2018-03-24T12:44:57.744Z,11.40
2018-03-24T12:47:25.351Z,11.57
2018-03-24T12:49:53.083Z,11.73
2018-03-24T12:52:20.802Z,11.30
2018-03-24T12:54:48.685Z,13.20
2018-03-24T12:57:16.575Z,12.10
2018-03-24T12:59:44.432Z,13.17
2018-03-24T13:02:12.097Z,12.90
2018-03-24T13:04:40.381Z,11.20
2018-03-24T13:07:08.465Z,12.67
2018-03-24T13:09:36.216Z,13.80
2018-03-24T13:12:04.289Z,13.10
2018-03-24T13:14:32.154Z,12.27
2018-03-24T13:17:00.327Z,11.87
2018-03-24T13:19:28.184Z,11.77
2018-03-24T13:21:55.977Z,12.33
2018-03-24T13:24:23.770Z,11.50
2018-03-24T13:26:51.348Z,12.80
2018-03-24T13:29:19.149Z,11.30
2018-03-24T13:31:47.015Z,12.23
2018-03-24T13:34:14.881Z,11.80
2018-03-24T13:36:42.748Z,12.57
2018-03-24T13:39:11.202Z,12.00
2018-03-24T13:41:39.368Z,12.27
2018-03-24T13:44:07.063Z,12.90
2018-03-24T13:46:34.904Z,11.90
2018-03-24T13:49:03.310Z,11.90
2018-03-24T13:51:31.175Z,11.03
2018-03-24T13:53:58.940Z,11.63
2018-03-24T13:56:26.611Z,13.57
2018-03-24T13:58:54.319Z,11.50
2018-03-24T14:01:21.871Z,11.50
2018-03-24T14:03:50.255Z,11.20
2018-03-24T14:06:18.251Z,11.93
2018-03-24T14:08:45.987Z,12.57
2018-03-24T14:11:13.796Z,13.43
2018-03-24T14:13:41.667Z,11.37
2018-03-24T14:16:09.538Z,11.43
2018-03-24T14:18:37.497Z,11.60
2018-03-24T14:21:05.267Z,11.63
2018-03-24T14:23:32.888Z,13.20
2018-03-24T14:26:00.759Z,11.87
2018-03-24T14:28:28.972Z,11.40
2018-03-24T14:30:56.668Z,11.50
2018-03-24T14:33:25.489Z,11.47
2018-03-24T14:35:53.173Z,12.03
2018-03-24T14:38:21.049Z,12.00
2018-03-24T14:40:48.840Z,12.60
2018-03-24T14:43:16.781Z,12.47
2018-03-24T14:45:44.647Z,11.87
2018-03-24T14:48:12.544Z,12.70
2018-03-24T14:50:40.396Z,10.60
2018-03-24T14:53:07.987Z,11.43
2018-03-24T14:55:36.216Z,11.53
2018-03-24T14:58:03.972Z,11.70
2018-03-24T15:00:31.642Z,11.93
2018-03-24T15:02:59.304Z,11.07
2018-03-24T15:05:27.086Z,11.43
2018-03-24T15:07:55.447Z,11.07
2018-03-24T15:10:23.202Z,11.97
2018-03-24T15:12:50.864Z,11.43
2018-03-24T15:15:18.637Z,13.17
2018-03-24T15:17:46.708Z,12.60
2018-03-24T15:20:14.819Z,12.50
2018-03-24T15:22:42.453Z,13.13
2018-03-24T15:25:10.193Z,13.07
2018-03-24T15:27:38.020Z,12.70
2018-03-24T15:30:17.440Z,12.37
2018-03-24T15:32:52.006Z,12.80
2018-03-24T15:35:31.718Z,14.93
2018-03-24T15:37:59.489Z,12.67
2018-03-24T15:40:27.169Z,13.97
2018-03-24T15:42:54.747Z,14.50
2018-03-24T15:45:22.409Z,13.97
2018-03-24T15:47:50.292Z,14.57
2018-03-24T15:50:17.828Z,12.53
2018-03-24T15:52:45.409Z,13.80
2018-03-24T15:55:13.006Z,13.90
2018-03-24T15:57:40.628Z,13.60
2018-03-24T16:00:08.495Z,13.10
2018-03-24T16:02:36.260Z,13.90
2018-03-24T16:05:04.030Z,12.70
2018-03-24T16:07:31.789Z,13.70
2018-03-24T16:09:59.654Z,12.10
2018-03-24T16:12:27.418Z,14.17
2018-03-24T16:14:55.184Z,13.50
2018-03-24T16:17:22.951Z,14.43
2018-03-24T16:19:51.017Z,13.70
2018-03-24T16:22:18.589Z,16.23
2018-03-24T16:24:46.325Z,13.25
2018-03-24T16:27:14.005Z,14.73
2018-03-24T16:29:41.769Z,13.90
2018-03-24T16:32:09.637Z,14.18
2018-03-24T16:34:37.501Z,12.93
2018-03-24T16:37:05.449Z,15.82
2018-03-24T16:39:33.057Z,14.52
2018-03-24T16:42:00.682Z,15.38
2018-03-24T16:44:28.660Z,14.35
2018-03-24T16:46:56.290Z,17.98
2018-03-24T16:49:24.169Z,20.30
2018-03-24T16:51:51.791Z,16.83
2018-03-24T16:54:19.502Z,16.23
2018-03-24T16:56:47.723Z,14.50
2018-03-24T16:59:15.757Z,18.65
2018-03-24T17:01:43.727Z,20.75
2018-03-24T17:04:11.881Z,19.23
2018-03-24T17:06:39.975Z,14.90
2018-03-24T17:09:07.764Z,15.45
2018-03-24T17:11:35.618Z,13.52
2018-03-24T17:14:03.469Z,14.13
2018-03-24T17:16:31.439Z,14.90
2018-03-24T17:18:59.483Z,14.95
2018-03-24T17:21:27.649Z,14.52
2018-03-24T17:23:55.548Z,12.85
2018-03-24T17:26:23.156Z,13.70
2018-03-24T17:28:51.239Z,14.38
2018-03-24T17:31:19.045Z,14.63
2018-03-24T17:33:47.731Z,15.20
2018-03-24T17:36:16.089Z,15.82
2018-03-24T17:38:43.647Z,17.12
2018-03-24T17:41:11.321Z,19.20
2018-03-24T17:43:39.300Z,14.57
2018-03-24T17:46:06.896Z,14.70
2018-03-24T17:48:34.445Z,15.93
2018-03-24T17:51:02.011Z,14.93
2018-03-24T17:53:29.639Z,16.08
2018-03-24T17:55:57.249Z,16.80
2018-03-24T17:58:25.065Z,15.82
2018-03-24T18:00:52.607Z,15.93
2018-03-24T18:03:20.175Z,18.05
2018-03-24T18:05:47.844Z,15.68
2018-03-24T18:08:15.609Z,16.10
2018-03-24T18:10:43.373Z,14.65
2018-03-24T18:13:11.217Z,14.27
2018-03-24T18:15:38.901Z,14.57
2018-03-24T18:18:06.678Z,14.60
2018-03-24T18:20:34.658Z,15.23
2018-03-24T18:23:02.707Z,15.93
2018-03-24T18:25:30.778Z,16.95
2018-03-24T18:27:58.644Z,16.55
2018-03-24T18:30:26.514Z,16.67
2018-03-24T18:32:54.377Z,16.58
2018-03-24T18:35:22.141Z,17.23
2018-03-24T18:37:49.927Z,16.62
2018-03-24T18:40:17.879Z,19.35
2018-03-24T18:42:45.946Z,17.70
2018-03-24T18:45:13.812Z,20.67
2018-03-24T18:47:42.105Z,20.83
2018-03-24T18:50:10.032Z,15.30
2018-03-24T18:52:37.925Z,17.65
2018-03-24T18:55:05.997Z,16.77
2018-03-24T18:57:33.763Z,15.52
2018-03-24T19:00:01.441Z,17.77
2018-03-24T19:02:29.493Z,17.10
2018-03-24T19:04:57.769Z,17.12
2018-03-24T19:07:25.841Z,17.00
2018-03-24T19:09:53.536Z,17.80
2018-03-24T19:12:21.550Z,18.20
2018-03-24T19:14:49.659Z,19.00
2018-03-24T19:17:18.440Z,19.60
2018-03-24T19:19:46.634Z,17.52
2018-03-24T19:22:14.473Z,16.70
2018-03-24T19:24:42.314Z,17.85
2018-03-24T19:27:10.917Z,16.87
2018-03-24T19:29:38.585Z,17.45
2018-03-24T19:32:06.553Z,17.00
2018-03-24T19:34:34.425Z,17.33
2018-03-24T19:37:02.287Z,17.62
2018-03-24T19:39:30.894Z,19.10
2018-03-24T19:41:58.869Z,19.92
2018-03-24T19:44:27.144Z,17.00
2018-03-24T19:46:54.974Z,18.50
2018-03-24T19:49:22.985Z,18.25
2018-03-24T19:51:51.533Z,20.25
2018-03-24T19:54:19.488Z,21.98
2018-03-24T19:56:50.406Z,22.35
2018-03-24T19:59:18.512Z,17.58
2018-03-24T20:01:46.473Z,19.48
2018-03-24T20:04:14.802Z,19.15
2018-03-24T20:06:42.578Z,23.12
2018-03-24T20:09:10.592Z,23.08
2018-03-24T20:11:38.663Z,21.95
2018-03-24T20:14:07.458Z,21.83
2018-03-24T20:16:35.522Z,21.05
2018-03-24T20:19:03.714Z,19.12
2018-03-24T20:21:32.077Z,20.00
2018-03-24T20:23:59.960Z,18.65
2018-03-24T20:26:28.024Z,20.23
2018-03-24T20:31:29.933Z,21.23
2018-03-24T20:33:58.064Z,29.83
2018-03-24T20:36:25.932Z,37.03
2018-03-24T20:38:53.794Z,37.70
2018-03-24T20:41:21.806Z,36.22
2018-03-24T20:43:50.501Z,31.42
2018-03-24T20:46:18.516Z,28.25
2018-03-24T20:48:46.285Z,24.27
2018-03-24T20:51:14.256Z,20.75
2018-03-24T20:53:42.443Z,22.23
2018-03-24T20:56:10.381Z,22.13
2018-03-24T20:58:38.658Z,21.80
2018-03-24T21:01:06.542Z,22.80
2018-03-24T21:03:35.125Z,21.73
2018-03-24T21:06:03.401Z,20.77
2018-03-24T21:08:31.456Z,24.33
2018-03-24T21:11:01.081Z,24.45
2018-03-24T21:13:29.362Z,23.80
2018-03-24T21:15:57.329Z,21.50
2018-03-24T21:18:25.536Z,23.27
2018-03-24T21:20:53.423Z,21.02
2018-03-24T21:23:21.437Z,23.30
2018-03-24T21:25:49.512Z,22.85
2018-03-24T21:28:17.352Z,19.60
2018-03-24T21:30:45.240Z,19.70
2018-03-24T21:33:13.312Z,20.92
2018-03-24T21:35:41.178Z,20.83
2018-03-24T21:38:09.044Z,20.55
2018-03-24T21:40:36.912Z,20.55
2018-03-24T21:43:05.700Z,20.35
2018-03-24T21:45:34.283Z,21.15
2018-03-24T21:48:02.239Z,22.00
2018-03-24T21:50:30.426Z,22.90
2018-03-24T21:52:59.623Z,24.77
2018-03-24T21:55:27.496Z,22.80
2018-03-24T21:57:55.356Z,22.30
2018-03-24T22:00:23.590Z,23.20
2018-03-24T22:02:51.725Z,21.95
2018-03-24T22:05:19.572Z,23.05
2018-03-24T22:07:47.316Z,21.40
2018-03-24T22:10:15.097Z,20.37
2018-03-24T22:12:43.580Z,20.20
2018-03-24T22:15:11.801Z,20.02
2018-03-24T22:17:39.722Z,20.12
2018-03-24T22:20:07.486Z,20.48
2018-03-24T22:22:35.268Z,19.00
2018-03-24T22:25:03.433Z,19.40
2018-03-24T22:27:31.188Z,21.27
2018-03-24T22:29:58.986Z,20.37
2018-03-24T22:32:27.025Z,19.92
2018-03-24T22:34:54.691Z,20.45
2018-03-24T22:37:23.066Z,20.70
2018-03-24T22:39:50.774Z,20.80
2018-03-24T22:42:18.493Z,19.77
2018-03-24T22:44:46.160Z,24.75
2018-03-24T22:47:14.230Z,20.35
2018-03-24T22:49:42.230Z,20.62
2018-03-24T22:52:10.117Z,20.35
2018-03-24T22:54:38.027Z,18.45
2018-03-24T22:57:05.895Z,20.58
2018-03-24T22:59:34.246Z,19.52
2018-03-24T23:02:01.948Z,20.95
2018-03-24T23:04:29.820Z,19.60
2018-03-24T23:06:57.565Z,22.05
2018-03-24T23:09:25.309Z,21.27
2018-03-24T23:11:52.938Z,20.45
2018-03-24T23:14:20.755Z,20.40
2018-03-24T23:16:48.327Z,19.90
2018-03-24T23:19:16.054Z,19.52
2018-03-24T23:21:43.617Z,20.62
2018-03-24T23:24:11.246Z,20.60
2018-03-24T23:26:38.935Z,19.62
2018-03-24T23:29:06.445Z,22.10
2018-03-24T23:31:33.978Z,19.15
2018-03-24T23:34:01.517Z,19.77
2018-03-24T23:36:29.037Z,20.30
2018-03-24T23:38:56.654Z,21.58
2018-03-24T23:41:24.200Z,20.52
2018-03-24T23:43:52.189Z,18.95
2018-03-24T23:46:19.730Z,21.67
2018-03-24T23:48:47.263Z,20.85
2018-03-24T23:51:15.154Z,18.08
2018-03-24T23:53:42.680Z,21.55
2018-03-24T23:56:10.203Z,19.05
2018-03-24T23:58:38.665Z,20.50
